createdAt,value
2023-01-02T00:02:12.130Z,12.40
2023-01-02T00:04:40.459Z,12.50
2023-01-02T00:07:08.723Z,12.50
2023-01-02T00:09:37.046Z,12.50
2023-01-02T00:12:05.549Z,12.50
2023-01-02T00:14:33.812Z,12.50
2023-01-02T00:17:03.504Z,12.40
2023-01-02T00:19:31.820Z,12.50
2023-01-02T00:22:00.297Z,12.40
2023-01-02T00:24:28.517Z,12.50
2023-01-02T00:26:56.770Z,12.40
2023-01-02T00:29:25.106Z,12.50
2023-01-02T00:31:53.428Z,12.50
2023-01-02T00:34:23.125Z,12.50
2023-01-02T00:36:51.450Z,12.50
2023-01-02T00:39:19.889Z,12.40
2023-01-02T00:41:48.112Z,12.50
2023-01-02T00:44:16.351Z,12.50
2023-01-02T00:46:44.698Z,12.50
2023-01-02T00:49:12.998Z,12.40
2023-01-02T00:51:42.627Z,12.40
2023-01-02T00:54:10.994Z,12.40
2023-01-02T00:56:39.316Z,12.40
2023-01-02T00:59:07.567Z,12.40
2023-01-02T01:01:36.103Z,12.40
2023-01-02T01:04:04.863Z,12.40
2023-01-02T01:06:34.510Z,12.40
2023-01-02T01:09:04.185Z,12.30
2023-01-02T01:11:32.485Z,12.30
2023-01-02T01:14:00.761Z,12.30
2023-01-02T01:16:29.222Z,12.30
2023-01-02T01:18:57.719Z,12.30
2023-01-02T01:21:26.012Z,12.30
2023-01-02T01:23:55.293Z,12.20
2023-01-02T01:26:25.220Z,12.20
2023-01-02T01:28:54.243Z,12.20
2023-01-02T01:31:22.730Z,12.20
2023-01-02T01:33:51.099Z,12.20
2023-01-02T01:36:21.073Z,12.20
2023-01-02T01:38:49.787Z,12.30
2023-01-02T01:41:19.461Z,12.30
2023-01-02T01:43:50.515Z,12.30
2023-01-02T01:46:26.727Z,12.20
2023-01-02T01:49:01.179Z,12.20
2023-01-02T01:51:29.444Z,12.20
2023-01-02T01:54:01.363Z,12.20
2023-01-02T01:56:29.659Z,12.30
2023-01-02T01:58:59.379Z,12.20
2023-01-02T02:01:27.773Z,12.30
2023-01-02T02:03:56.101Z,12.30
2023-01-02T02:06:24.461Z,12.30
2023-01-02T02:08:56.382Z,12.30
2023-01-02T02:11:24.657Z,12.40
2023-01-02T02:13:52.986Z,12.40
2023-01-02T02:16:29.784Z,12.40
2023-01-02T02:19:39.411Z,12.50
2023-01-02T02:22:35.866Z,12.50
2023-01-02T02:25:32.111Z,12.50
2023-01-02T02:28:47.404Z,12.50
2023-01-02T02:31:19.676Z,12.50
2023-01-02T02:33:50.418Z,12.50
2023-01-02T02:36:22.552Z,12.50
2023-01-02T02:39:02.147Z,12.50
2023-01-02T02:41:35.058Z,12.50
2023-01-02T02:44:15.988Z,12.60
2023-01-02T02:46:49.795Z,12.60
2023-01-02T02:49:26.441Z,12.60
2023-01-02T02:51:57.747Z,12.60
2023-01-02T02:54:28.855Z,12.60
2023-01-02T02:56:57.149Z,12.60
2023-01-02T02:59:25.445Z,12.70
2023-01-02T03:01:55.242Z,12.60
2023-01-02T03:04:24.007Z,12.60
2023-01-02T03:07:11.530Z,12.60
2023-01-02T03:09:46.036Z,12.60
2023-01-02T03:12:23.823Z,12.70
2023-01-02T03:14:58.408Z,12.70
2023-01-02T03:17:34.774Z,12.70
2023-01-02T03:20:09.183Z,12.70
2023-01-02T03:22:39.897Z,12.70
2023-01-02T03:25:09.070Z,12.70
2023-01-02T03:27:38.612Z,12.70
2023-01-02T03:30:08.978Z,12.70
2023-01-02T03:32:40.867Z,12.70
2023-01-02T03:35:11.918Z,12.70
2023-01-02T03:37:42.303Z,12.70
2023-01-02T03:40:14.387Z,12.70
2023-01-02T03:42:45.877Z,12.70
2023-01-02T03:45:16.985Z,12.70
2023-01-02T03:47:50.493Z,12.70
2023-01-02T03:50:21.119Z,12.70
2023-01-02T03:52:49.464Z,12.80
2023-01-02T03:55:18.238Z,12.80
2023-01-02T03:57:57.470Z,12.80
2023-01-02T04:00:26.481Z,12.80
2023-01-02T04:02:58.884Z,12.80
2023-01-02T04:05:31.211Z,12.80
2023-01-02T04:08:01.201Z,12.80
2023-01-02T04:10:30.100Z,12.80
2023-01-02T04:13:01.299Z,12.80
2023-01-02T04:15:32.344Z,12.80
2023-01-02T04:18:06.536Z,12.80
2023-01-02T04:20:37.305Z,12.80
2023-01-02T04:23:08.178Z,12.80
2023-01-02T04:25:39.575Z,12.80
2023-01-02T04:28:10.664Z,12.80
2023-01-02T04:30:42.283Z,12.80
2023-01-02T04:33:11.975Z,12.80
2023-01-02T04:35:40.255Z,12.80
2023-01-02T04:38:09.320Z,12.80
2023-01-02T04:40:38.235Z,12.80
2023-01-02T04:43:07.323Z,12.80
2023-01-02T04:45:35.825Z,12.90
2023-01-02T04:48:04.301Z,12.80
2023-01-02T04:50:33.946Z,12.90
2023-01-02T04:53:02.575Z,12.90
2023-01-02T04:55:30.863Z,12.90
2023-01-02T04:57:59.265Z,12.90
2023-01-02T05:00:27.526Z,12.90
2023-01-02T05:02:55.852Z,12.90
2023-01-02T05:05:24.107Z,12.90
2023-01-02T05:07:53.887Z,12.90
2023-01-02T05:10:22.174Z,12.90
2023-01-02T05:12:50.553Z,12.90
2023-01-02T05:15:19.040Z,12.90
2023-01-02T05:17:47.340Z,12.90
2023-01-02T05:20:15.648Z,12.90
2023-01-02T05:23:02.191Z,12.90
2023-01-02T05:25:33.529Z,12.90
2023-01-02T05:28:02.323Z,12.90
2023-01-02T05:30:30.699Z,12.90
2023-01-02T05:32:59.008Z,12.90
2023-01-02T05:35:32.588Z,13.00
2023-01-02T05:38:02.133Z,13.00
2023-01-02T05:40:31.829Z,13.00
2023-01-02T05:43:00.209Z,13.00
2023-01-02T05:45:28.865Z,13.00
2023-01-02T05:47:57.136Z,13.00
2023-01-02T05:50:25.473Z,13.00
2023-01-02T05:52:53.775Z,13.10
2023-01-02T05:55:22.851Z,13.00
2023-01-02T05:57:55.598Z,13.00
2023-01-02T06:00:24.026Z,13.00
2023-01-02T06:02:52.329Z,13.10
2023-01-02T06:05:20.657Z,13.10
2023-01-02T06:07:48.927Z,13.10
2023-01-02T06:10:17.443Z,13.10
2023-01-02T06:12:45.790Z,13.10
2023-01-02T06:15:15.578Z,13.10
2023-01-02T06:17:43.841Z,13.00
2023-01-02T06:20:12.829Z,13.00
2023-01-02T06:22:41.226Z,13.10
2023-01-02T06:25:10.372Z,13.10
2023-01-02T06:27:38.727Z,13.10
2023-01-02T06:30:08.979Z,13.00
2023-01-02T06:32:38.612Z,13.10
2023-01-02T06:35:08.140Z,13.10
2023-01-02T06:37:36.581Z,13.00
2023-01-02T06:40:05.885Z,13.00
2023-01-02T06:42:34.165Z,13.00
2023-01-02T06:45:02.510Z,13.10
2023-01-02T06:47:30.785Z,13.00
2023-01-02T06:50:00.443Z,13.10
2023-01-02T06:52:29.071Z,13.10
2023-01-02T06:54:57.389Z,13.20
2023-01-02T06:57:25.690Z,13.20
2023-01-02T06:59:54.492Z,13.30
2023-01-02T07:02:22.924Z,13.30
2023-01-02T07:04:51.319Z,13.30
2023-01-02T07:07:21.012Z,13.40
2023-01-02T07:09:49.292Z,13.40
2023-01-02T07:12:18.291Z,13.40
2023-01-02T07:14:46.620Z,13.50
2023-01-02T07:17:14.957Z,13.60
2023-01-02T07:19:47.011Z,13.60
2023-01-02T07:22:18.299Z,13.60
2023-01-02T07:24:47.959Z,13.70
2023-01-02T07:27:16.255Z,13.70
2023-01-02T07:29:44.542Z,13.80
2023-01-02T07:32:12.876Z,13.80
2023-01-02T07:34:41.197Z,13.80
2023-01-02T07:37:09.538Z,13.90
2023-01-02T07:39:37.860Z,13.90
2023-01-02T07:42:07.642Z,14.00
2023-01-02T07:44:36.018Z,14.00
2023-01-02T07:47:04.363Z,14.10
2023-01-02T07:49:32.708Z,14.10
2023-01-02T07:52:00.949Z,14.10
2023-01-02T07:54:29.298Z,14.20
2023-01-02T07:56:57.702Z,14.10
2023-01-02T07:59:27.387Z,14.20
2023-01-02T08:01:55.760Z,14.20
2023-01-02T08:04:24.307Z,14.20
2023-01-02T08:06:52.651Z,14.20
2023-01-02T08:09:21.151Z,14.20
2023-01-02T08:11:49.445Z,14.30
2023-01-02T08:14:23.182Z,14.30
2023-01-02T08:16:53.404Z,14.30
2023-01-02T08:19:21.817Z,14.30
2023-01-02T08:21:50.111Z,14.30
2023-01-02T08:24:18.404Z,14.30
2023-01-02T08:26:46.767Z,14.30
2023-01-02T08:29:15.028Z,14.40
2023-01-02T08:31:44.062Z,14.40
2023-01-02T08:34:15.937Z,14.40
2023-01-02T08:36:44.976Z,14.40
2023-01-02T08:39:13.252Z,14.40
2023-01-02T08:41:41.940Z,14.40
2023-01-02T08:44:10.312Z,14.50
2023-01-02T08:46:42.850Z,14.50
2023-01-02T08:49:13.327Z,14.50
2023-01-02T08:51:41.672Z,14.50
2023-01-02T08:54:09.951Z,14.60
2023-01-02T08:56:38.638Z,14.60
2023-01-02T08:59:08.395Z,14.60
2023-01-02T09:01:36.996Z,14.60
2023-01-02T09:04:12.006Z,14.70
2023-01-02T09:06:43.517Z,14.70
2023-01-02T09:09:13.002Z,14.70
2023-01-02T09:11:44.972Z,14.80
2023-01-02T09:14:13.386Z,14.80
2023-01-02T09:16:41.692Z,14.80
2023-01-02T09:19:10.108Z,14.80
2023-01-02T09:21:38.403Z,14.90
2023-01-02T09:24:09.382Z,14.90
2023-01-02T09:26:41.583Z,14.90
2023-01-02T09:29:10.073Z,15.00
2023-01-02T09:31:38.439Z,15.00
2023-01-02T09:34:06.741Z,15.10
2023-01-02T09:36:35.191Z,15.10
2023-01-02T09:39:03.784Z,15.20
2023-01-02T09:41:36.393Z,15.20
2023-01-02T09:44:11.307Z,15.30
2023-01-02T09:46:45.550Z,15.30
2023-01-02T09:49:15.865Z,15.40
2023-01-02T09:51:44.676Z,15.40
2023-01-02T09:54:20.054Z,15.50
2023-01-02T09:56:53.079Z,15.50
2023-01-02T09:59:25.999Z,15.50
2023-01-02T10:02:01.245Z,15.60
2023-01-02T10:04:45.136Z,15.60
2023-01-02T10:07:14.765Z,15.60
2023-01-02T10:09:50.783Z,15.70
2023-01-02T10:12:25.346Z,15.70
2023-01-02T10:14:56.972Z,15.70
2023-01-02T10:17:25.266Z,15.70
2023-01-02T10:19:57.320Z,15.80
2023-01-02T10:22:31.632Z,15.80
2023-01-02T10:25:04.887Z,15.80
2023-01-02T10:27:37.547Z,15.90
2023-01-02T10:30:15.178Z,15.90
2023-01-02T10:32:44.323Z,16.00
2023-01-02T10:35:23.530Z,16.00
2023-01-02T10:37:51.885Z,16.00
2023-01-02T10:40:20.907Z,16.00
2023-01-02T10:42:57.749Z,16.00
2023-01-02T10:45:27.846Z,16.00
2023-01-02T10:47:56.226Z,16.00
2023-01-02T10:50:26.617Z,16.00
2023-01-02T10:52:55.801Z,16.00
2023-01-02T10:55:32.063Z,16.00
2023-01-02T10:58:06.081Z,15.90
2023-01-02T11:00:36.004Z,15.90
2023-01-02T11:03:09.546Z,15.80
2023-01-02T11:05:45.464Z,15.80
2023-01-02T11:08:15.489Z,15.80
2023-01-02T11:10:44.154Z,15.80
2023-01-02T11:13:14.989Z,15.80
2023-01-02T11:15:53.556Z,15.70
2023-01-02T11:18:26.452Z,15.70
2023-01-02T11:20:57.089Z,15.70
2023-01-02T11:23:26.611Z,15.80
2023-01-02T11:25:54.969Z,15.80
2023-01-02T11:28:26.599Z,15.80
2023-01-02T11:30:55.952Z,15.70
2023-01-02T11:33:29.183Z,15.70
2023-01-02T11:35:58.738Z,15.70
2023-01-02T11:38:30.809Z,15.60
2023-01-02T11:41:01.073Z,15.70
2023-01-02T11:43:49.500Z,15.60
2023-01-02T11:46:27.259Z,15.60
2023-01-02T11:49:00.992Z,15.60
2023-01-02T11:51:29.827Z,15.60
2023-01-02T11:53:58.272Z,15.50
2023-01-02T11:56:30.003Z,15.50
2023-01-02T11:59:02.912Z,15.50
2023-01-02T12:01:38.209Z,15.50
2023-01-02T12:04:06.801Z,15.50
2023-01-02T12:06:46.602Z,15.50
2023-01-02T12:09:16.089Z,15.60
2023-01-02T12:11:58.652Z,15.60
2023-01-02T12:14:49.220Z,15.60
2023-01-02T12:17:23.016Z,15.60
2023-01-02T12:20:21.625Z,15.60
2023-01-02T12:23:31.025Z,15.50
2023-01-02T12:26:09.434Z,15.50
2023-01-02T12:29:06.305Z,15.50
2023-01-02T12:31:49.422Z,15.50
2023-01-02T12:34:28.508Z,15.50
2023-01-02T12:37:06.966Z,15.50
2023-01-02T12:39:59.254Z,15.50
2023-01-02T12:42:43.406Z,15.40
2023-01-02T12:45:14.516Z,15.40
2023-01-02T12:47:56.392Z,15.40
2023-01-02T12:50:49.181Z,15.30
2023-01-02T12:53:29.654Z,15.30
2023-01-02T12:56:05.927Z,15.30
2023-01-02T12:58:45.135Z,15.20
2023-01-02T13:01:19.614Z,15.20
2023-01-02T13:04:03.565Z,15.20
2023-01-02T13:06:46.047Z,15.20
2023-01-02T13:09:22.685Z,15.20
2023-01-02T13:11:57.825Z,15.10
2023-01-02T13:14:31.112Z,15.10
2023-01-02T13:17:05.565Z,15.00
2023-01-02T13:19:38.489Z,14.90
2023-01-02T13:22:12.724Z,14.90
2023-01-02T13:24:41.140Z,14.80
2023-01-02T13:27:10.301Z,14.80
2023-01-02T13:29:43.095Z,14.80
2023-01-02T13:32:11.907Z,14.80
2023-01-02T13:34:49.169Z,14.80
2023-01-02T13:37:19.607Z,14.90
2023-01-02T13:39:49.775Z,14.90
2023-01-02T13:42:42.402Z,14.80
2023-01-02T13:45:14.267Z,14.80
2023-01-02T13:47:49.808Z,14.80
2023-01-02T13:50:24.859Z,14.80
2023-01-02T13:53:06.220Z,14.80
2023-01-02T13:55:35.436Z,14.70
2023-01-02T13:58:29.016Z,14.70
2023-01-02T14:00:57.954Z,14.70
2023-01-02T14:03:46.971Z,14.70
2023-01-02T14:06:32.611Z,14.70
2023-01-02T14:09:10.663Z,14.70
2023-01-02T14:11:56.082Z,14.70
2023-01-02T14:14:29.755Z,14.70
2023-01-02T14:17:12.393Z,14.80
2023-01-02T14:19:40.727Z,14.70
2023-01-02T14:22:14.089Z,14.70
2023-01-02T14:24:43.895Z,14.70
2023-01-02T14:27:23.312Z,14.70
2023-01-02T14:29:53.819Z,14.70
2023-01-02T14:32:25.586Z,14.70
2023-01-02T14:34:55.468Z,14.60
2023-01-02T14:37:37.647Z,14.60
2023-01-02T14:40:19.099Z,14.60
2023-01-02T14:43:06.355Z,14.60
2023-01-02T14:45:34.698Z,14.60
2023-01-02T14:48:10.784Z,14.60
2023-01-02T14:50:39.134Z,14.60
2023-01-02T14:53:14.952Z,14.70
2023-01-02T14:55:43.225Z,14.70
2023-01-02T14:58:20.422Z,14.70
2023-01-02T15:00:48.856Z,14.70
2023-01-02T15:03:24.443Z,14.70
2023-01-02T15:05:55.690Z,14.70
2023-01-02T15:08:35.970Z,14.80
2023-01-02T15:11:18.940Z,14.70
2023-01-02T15:14:04.287Z,14.80
2023-01-02T15:16:34.871Z,14.70
2023-01-02T15:19:03.411Z,14.70
2023-01-02T15:21:31.671Z,14.70
2023-01-02T15:24:02.008Z,14.80
2023-01-02T15:26:34.109Z,14.70
2023-01-02T15:29:04.534Z,14.70
2023-01-02T15:31:32.984Z,14.70
2023-01-02T15:34:02.689Z,14.80
2023-01-02T15:36:40.066Z,14.80
2023-01-02T15:39:16.275Z,14.80
2023-01-02T15:41:47.189Z,14.80
2023-01-02T15:44:40.757Z,14.80
2023-01-02T15:47:09.475Z,14.90
2023-01-02T15:49:40.958Z,14.90
2023-01-02T15:55:13.529Z,14.90
2023-01-02T15:57:48.252Z,14.90
2023-01-02T16:00:37.249Z,14.90
2023-01-02T16:03:05.945Z,14.80
2023-01-02T16:05:46.502Z,14.80
2023-01-02T16:08:19.883Z,14.90
2023-01-02T16:10:51.428Z,14.80
2023-01-02T16:13:41.617Z,14.70
2023-01-02T16:16:43.882Z,14.70
2023-01-02T16:19:18.098Z,14.60
2023-01-02T16:21:46.378Z,14.60
2023-01-02T16:24:19.256Z,14.50
2023-01-02T16:26:48.941Z,14.50
2023-01-02T16:29:18.927Z,14.40
2023-01-02T16:31:58.320Z,14.40
2023-01-02T16:34:36.058Z,14.40
2023-01-02T16:37:21.479Z,14.40
2023-01-02T16:39:50.616Z,14.30
2023-01-02T16:42:37.522Z,14.20
2023-01-02T16:45:07.302Z,14.20
2023-01-02T16:47:39.414Z,14.10
2023-01-02T16:50:09.798Z,14.10
2023-01-02T16:52:38.171Z,14.10
2023-01-02T16:55:07.960Z,14.00
2023-01-02T16:57:37.616Z,14.00
2023-01-02T17:00:07.558Z,13.90
2023-01-02T17:02:36.068Z,13.90
2023-01-02T17:05:08.226Z,13.90
2023-01-02T17:07:36.565Z,13.80
2023-01-02T17:10:05.376Z,13.70
2023-01-02T17:12:37.010Z,13.60
2023-01-02T17:15:13.865Z,13.50
2023-01-02T17:17:42.198Z,13.40
2023-01-02T17:20:12.340Z,13.40
2023-01-02T17:22:40.962Z,13.20
2023-01-02T17:25:10.771Z,13.20
2023-01-02T17:27:39.097Z,13.10
2023-01-02T17:30:10.526Z,13.00
2023-01-02T17:32:38.865Z,12.90
2023-01-02T17:35:07.623Z,12.80
2023-01-02T17:37:35.922Z,12.70
2023-01-02T17:40:04.240Z,12.60
2023-01-02T17:42:32.602Z,12.60
2023-01-02T17:45:00.900Z,12.60
2023-01-02T17:47:59.340Z,12.50
2023-01-02T17:50:19.316Z,12.50
2023-01-02T17:52:47.945Z,12.50
2023-01-02T17:55:16.233Z,12.40
2023-01-02T17:57:44.593Z,12.40
2023-01-02T18:00:15.137Z,12.40
2023-01-02T18:02:45.098Z,12.50
2023-01-02T18:05:13.918Z,12.50
2023-01-02T18:07:42.178Z,12.50
2023-01-02T18:10:17.379Z,12.60
2023-01-02T18:12:49.101Z,12.50
2023-01-02T18:15:18.404Z,12.50
2023-01-02T18:17:48.041Z,12.60
2023-01-02T18:20:18.279Z,12.50
2023-01-02T18:22:50.059Z,12.50
2023-01-02T18:25:21.691Z,12.50
2023-01-02T18:27:49.936Z,12.50
2023-01-02T18:30:20.894Z,12.40
2023-01-02T18:32:51.500Z,12.40
2023-01-02T18:38:20.095Z,12.30
2023-01-02T18:40:48.419Z,12.20
2023-01-02T18:43:23.161Z,12.20
2023-01-02T18:45:54.497Z,12.10
2023-01-02T18:48:24.257Z,12.10
2023-01-02T18:50:59.481Z,12.10
2023-01-02T18:53:31.243Z,12.10
2023-01-02T18:56:03.413Z,12.10
2023-01-02T18:58:54.735Z,12.10
2023-01-02T19:01:27.693Z,12.10
2023-01-02T19:04:17.545Z,12.00
2023-01-02T19:06:51.910Z,12.10
2023-01-02T19:09:22.578Z,12.00
2023-01-02T19:12:17.347Z,12.00
2023-01-02T19:14:45.783Z,12.00
2023-01-02T19:17:22.581Z,12.00
2023-01-02T19:19:52.323Z,12.00
2023-01-02T19:22:23.590Z,12.00
2023-01-02T19:24:51.999Z,12.00
2023-01-02T19:27:28.435Z,12.00
2023-01-02T19:29:56.855Z,12.10
2023-01-02T19:32:28.945Z,12.10
2023-01-02T19:35:00.856Z,12.10
2023-01-02T19:37:38.897Z,12.10
2023-01-02T19:40:19.067Z,12.10
2023-01-02T19:42:48.193Z,12.00
2023-01-02T19:45:17.659Z,12.00
2023-01-02T19:47:46.447Z,12.00
2023-01-02T19:50:17.547Z,11.90
2023-01-02T19:52:45.844Z,11.90
2023-01-02T19:55:14.828Z,11.90
2023-01-02T19:57:43.179Z,11.80
2023-01-02T20:00:13.780Z,11.80
2023-01-02T20:02:42.728Z,11.80
2023-01-02T20:05:13.628Z,11.70
2023-01-02T20:07:47.422Z,11.60
2023-01-02T20:10:15.749Z,11.60
2023-01-02T20:12:44.756Z,11.50
2023-01-02T20:15:14.878Z,11.50
2023-01-02T20:17:43.428Z,11.50
2023-01-02T20:20:14.196Z,11.50
2023-01-02T20:22:43.450Z,11.50
2023-01-02T20:25:14.415Z,11.40
2023-01-02T20:27:42.754Z,11.40
2023-01-02T20:30:12.639Z,11.40
2023-01-02T20:32:40.898Z,11.30
2023-01-02T20:35:09.897Z,11.30
2023-01-02T20:37:38.196Z,11.30
2023-01-02T20:40:08.918Z,11.30
2023-01-02T20:42:39.086Z,11.30
2023-01-02T20:45:09.135Z,11.20
2023-01-02T20:47:37.460Z,11.20
2023-01-02T20:50:06.382Z,11.20
2023-01-02T20:52:34.820Z,11.20
2023-01-02T20:55:03.143Z,11.10
2023-01-02T20:57:31.519Z,11.20
2023-01-02T21:00:01.306Z,11.10
2023-01-02T21:02:29.895Z,11.10
2023-01-02T21:05:00.084Z,11.10
2023-01-02T21:07:28.531Z,11.10
2023-01-02T21:09:58.991Z,11.10
2023-01-02T21:12:47.112Z,11.10
2023-01-02T21:15:30.829Z,11.00
2023-01-02T21:17:59.156Z,11.00
2023-01-02T21:20:27.632Z,11.00
2023-01-02T21:22:55.966Z,11.00
2023-01-02T21:25:24.356Z,11.00
2023-01-02T21:27:52.708Z,11.00
2023-01-02T21:30:22.393Z,11.00
2023-01-02T21:32:50.965Z,11.00
2023-01-02T21:35:19.493Z,10.90
2023-01-02T21:37:47.892Z,10.90
2023-01-02T21:40:16.311Z,11.00
2023-01-02T21:42:45.175Z,11.00
2023-01-02T21:45:13.618Z,10.90
2023-01-02T21:47:43.534Z,10.90
2023-01-02T21:50:11.897Z,10.90
2023-01-02T21:52:40.789Z,10.90
2023-01-02T21:55:09.830Z,10.90
2023-01-02T21:58:11.819Z,10.80
2023-01-02T22:00:29.156Z,10.80
2023-01-02T22:02:58.926Z,10.80
2023-01-02T22:05:27.271Z,10.70
2023-01-02T22:07:55.624Z,10.60
2023-01-02T22:10:23.945Z,10.60
2023-01-02T22:12:52.168Z,10.60
2023-01-02T22:15:20.981Z,10.60
2023-01-02T22:17:49.299Z,10.60
2023-01-02T22:20:19.183Z,10.50
2023-01-02T22:22:47.545Z,10.50
2023-01-02T22:25:15.853Z,10.50
2023-01-02T22:27:44.177Z,10.60
2023-01-02T22:30:27.173Z,10.60
2023-01-02T22:32:59.975Z,10.50
2023-01-02T22:35:29.703Z,10.50
2023-01-02T22:37:59.547Z,10.50
2023-01-02T22:40:28.883Z,10.50
2023-01-02T22:43:00.893Z,10.40
2023-01-02T22:45:34.221Z,10.40
2023-01-02T22:48:04.498Z,10.40
2023-01-02T22:50:43.011Z,10.30
2023-01-02T22:53:19.915Z,10.30
2023-01-02T22:55:48.502Z,10.30
2023-01-02T22:58:17.023Z,10.20
2023-01-02T23:00:46.045Z,10.20
2023-01-02T23:03:14.956Z,10.20
2023-01-02T23:05:44.696Z,10.20
2023-01-02T23:08:13.132Z,10.20
2023-01-02T23:10:41.666Z,10.10
2023-01-02T23:13:10.003Z,10.10
2023-01-02T23:15:58.829Z,10.10
2023-01-02T23:18:44.776Z,10.10
2023-01-02T23:21:14.559Z,10.10
2023-01-02T23:23:43.128Z,10.00
2023-01-02T23:26:12.008Z,10.00
2023-01-02T23:29:05.862Z,10.00
2023-01-02T23:31:28.853Z,9.90
2023-01-02T23:33:57.227Z,9.80
2023-01-02T23:36:27.061Z,9.80
2023-01-02T23:38:55.340Z,9.70
2023-01-02T23:41:23.615Z,9.70
2023-01-02T23:43:52.427Z,9.70
2023-01-02T23:46:20.826Z,9.70
2023-01-02T23:48:49.241Z,9.70
2023-01-02T23:51:18.597Z,9.70
2023-01-02T23:53:48.252Z,9.70
2023-01-02T23:56:19.941Z,9.80
2023-01-02T23:58:48.503Z,9.70
